sensor_id;sensor_type;location;lat;lon;timestamp;P1;durP1;ratioP1;P2;durP2;ratioP2
6013;SDS011;3035;49.928;8.410;2024-01-07T00:00:51;3.20;;;2.13;;
6013;SDS011;3035;49.928;8.410;2024-01-07T00:03:19;3.80;;;2.70;;
6013;SDS011;3035;49.928;8.410;2024-01-07T00:05:46;2.43;;;2.23;;
6013;SDS011;3035;49.928;8.410;2024-01-07T00:08:14;3.27;;;2.47;;
6013;SDS011;3035;49.928;8.410;2024-01-07T00:10:41;4.10;;;2.20;;
6013;SDS011;3035;49.928;8.410;2024-01-07T00:13:09;2.20;;;1.80;;
6013;SDS011;3035;49.928;8.410;2024-01-07T00:15:36;2.90;;;2.20;;
6013;SDS011;3035;49.928;8.410;2024-01-07T00:18:04;2.90;;;2.23;;
6013;SDS011;3035;49.928;8.410;2024-01-07T00:20:31;2.47;;;2.03;;
6013;SDS011;3035;49.928;8.410;2024-01-07T00:22:59;3.17;;;2.20;;
6013;SDS011;3035;49.928;8.410;2024-01-07T00:25:26;2.53;;;2.20;;
6013;SDS011;3035;49.928;8.410;2024-01-07T00:27:53;2.00;;;1.90;;
6013;SDS011;3035;49.928;8.410;2024-01-07T00:30:21;3.10;;;2.60;;
6013;SDS011;3035;49.928;8.410;2024-01-07T00:32:48;3.60;;;2.87;;
6013;SDS011;3035;49.928;8.410;2024-01-07T00:35:16;4.57;;;2.57;;
6013;SDS011;3035;49.928;8.410;2024-01-07T00:37:43;4.50;;;2.67;;
6013;SDS011;3035;49.928;8.410;2024-01-07T00:40:11;3.87;;;3.00;;
6013;SDS011;3035;49.928;8.410;2024-01-07T00:42:38;5.60;;;3.37;;
6013;SDS011;3035;49.928;8.410;2024-01-07T00:45:06;3.50;;;3.00;;
6013;SDS011;3035;49.928;8.410;2024-01-07T00:47:34;5.20;;;3.77;;
6013;SDS011;3035;49.928;8.410;2024-01-07T00:50:02;3.87;;;3.43;;
6013;SDS011;3035;49.928;8.410;2024-01-07T00:52:29;3.97;;;3.30;;
6013;SDS011;3035;49.928;8.410;2024-01-07T00:54:56;5.23;;;3.47;;
6013;SDS011;3035;49.928;8.410;2024-01-07T00:57:24;7.40;;;3.90;;
6013;SDS011;3035;49.928;8.410;2024-01-07T00:59:51;5.20;;;3.50;;
6013;SDS011;3035;49.928;8.410;2024-01-07T01:02:19;5.30;;;3.40;;
6013;SDS011;3035;49.928;8.410;2024-01-07T01:04:46;7.57;;;3.70;;
6013;SDS011;3035;49.928;8.410;2024-01-07T01:07:14;4.97;;;3.73;;
6013;SDS011;3035;49.928;8.410;2024-01-07T01:09:41;6.03;;;4.03;;
6013;SDS011;3035;49.928;8.410;2024-01-07T01:12:09;6.67;;;4.40;;
6013;SDS011;3035;49.928;8.410;2024-01-07T01:14:36;5.90;;;4.00;;
6013;SDS011;3035;49.928;8.410;2024-01-07T01:17:04;6.80;;;4.57;;
6013;SDS011;3035;49.928;8.410;2024-01-07T01:19:31;7.70;;;4.10;;
6013;SDS011;3035;49.928;8.410;2024-01-07T01:21:59;7.97;;;4.60;;
6013;SDS011;3035;49.928;8.410;2024-01-07T01:24:26;6.17;;;3.43;;
6013;SDS011;3035;49.928;8.410;2024-01-07T01:26:53;6.23;;;4.07;;
6013;SDS011;3035;49.928;8.410;2024-01-07T01:29:21;6.87;;;4.93;;
6013;SDS011;3035;49.928;8.410;2024-01-07T01:31:48;7.37;;;4.67;;
6013;SDS011;3035;49.928;8.410;2024-01-07T01:34:16;6.97;;;4.73;;
6013;SDS011;3035;49.928;8.410;2024-01-07T01:36:43;7.80;;;5.30;;
6013;SDS011;3035;49.928;8.410;2024-01-07T01:39:11;6.30;;;4.67;;
6013;SDS011;3035;49.928;8.410;2024-01-07T01:41:38;4.97;;;3.90;;
6013;SDS011;3035;49.928;8.410;2024-01-07T01:44:06;7.07;;;4.70;;
6013;SDS011;3035;49.928;8.410;2024-01-07T01:46:33;6.90;;;4.70;;
6013;SDS011;3035;49.928;8.410;2024-01-07T01:49:00;7.03;;;5.07;;
6013;SDS011;3035;49.928;8.410;2024-01-07T01:51:28;7.07;;;5.03;;
6013;SDS011;3035;49.928;8.410;2024-01-07T01:53:55;5.80;;;4.47;;
6013;SDS011;3035;49.928;8.410;2024-01-07T01:56:23;8.20;;;4.67;;
6013;SDS011;3035;49.928;8.410;2024-01-07T01:58:50;6.60;;;4.80;;
6013;SDS011;3035;49.928;8.410;2024-01-07T02:01:18;7.73;;;4.47;;
6013;SDS011;3035;49.928;8.410;2024-01-07T02:03:45;5.60;;;3.93;;
6013;SDS011;3035;49.928;8.410;2024-01-07T02:06:12;5.80;;;4.60;;
6013;SDS011;3035;49.928;8.410;2024-01-07T02:08:40;7.33;;;4.80;;
6013;SDS011;3035;49.928;8.410;2024-01-07T02:11:15;6.87;;;4.67;;
6013;SDS011;3035;49.928;8.410;2024-01-07T02:13:42;7.90;;;4.40;;
6013;SDS011;3035;49.928;8.410;2024-01-07T02:16:09;7.30;;;4.37;;
6013;SDS011;3035;49.928;8.410;2024-01-07T02:18:37;6.67;;;4.57;;
6013;SDS011;3035;49.928;8.410;2024-01-07T02:21:04;6.80;;;5.03;;
6013;SDS011;3035;49.928;8.410;2024-01-07T02:23:31;5.60;;;4.20;;
6013;SDS011;3035;49.928;8.410;2024-01-07T02:25:59;10.37;;;4.20;;
6013;SDS011;3035;49.928;8.410;2024-01-07T02:28:26;7.33;;;5.17;;
6013;SDS011;3035;49.928;8.410;2024-01-07T02:30:54;7.10;;;4.30;;
6013;SDS011;3035;49.928;8.410;2024-01-07T02:33:21;6.10;;;4.67;;
6013;SDS011;3035;49.928;8.410;2024-01-07T02:35:48;5.30;;;3.90;;
6013;SDS011;3035;49.928;8.410;2024-01-07T02:38:16;7.00;;;3.33;;
6013;SDS011;3035;49.928;8.410;2024-01-07T02:40:43;6.33;;;4.50;;
6013;SDS011;3035;49.928;8.410;2024-01-07T02:43:11;6.43;;;4.40;;
6013;SDS011;3035;49.928;8.410;2024-01-07T02:45:38;5.43;;;4.20;;
6013;SDS011;3035;49.928;8.410;2024-01-07T02:48:06;5.30;;;4.00;;
6013;SDS011;3035;49.928;8.410;2024-01-07T02:50:33;5.03;;;3.87;;
6013;SDS011;3035;49.928;8.410;2024-01-07T02:53:01;7.93;;;3.90;;
6013;SDS011;3035;49.928;8.410;2024-01-07T02:55:28;7.37;;;4.10;;
6013;SDS011;3035;49.928;8.410;2024-01-07T02:57:55;6.10;;;4.10;;
6013;SDS011;3035;49.928;8.410;2024-01-07T03:00:23;5.50;;;3.93;;
6013;SDS011;3035;49.928;8.410;2024-01-07T03:02:50;4.60;;;3.17;;
6013;SDS011;3035;49.928;8.410;2024-01-07T03:05:18;7.03;;;4.20;;
6013;SDS011;3035;49.928;8.410;2024-01-07T03:07:45;6.20;;;4.00;;
6013;SDS011;3035;49.928;8.410;2024-01-07T03:10:13;7.07;;;4.30;;
6013;SDS011;3035;49.928;8.410;2024-01-07T03:12:41;4.33;;;3.30;;
6013;SDS011;3035;49.928;8.410;2024-01-07T03:15:07;5.30;;;3.30;;
6013;SDS011;3035;49.928;8.410;2024-01-07T03:17:35;4.60;;;3.67;;
6013;SDS011;3035;49.928;8.410;2024-01-07T03:20:02;6.47;;;3.80;;
6013;SDS011;3035;49.928;8.410;2024-01-07T03:22:30;3.87;;;3.43;;
6013;SDS011;3035;49.928;8.410;2024-01-07T03:24:57;5.07;;;3.67;;
6013;SDS011;3035;49.928;8.410;2024-01-07T03:27:25;3.97;;;2.90;;
6013;SDS011;3035;49.928;8.410;2024-01-07T03:29:52;3.10;;;2.60;;
6013;SDS011;3035;49.928;8.410;2024-01-07T03:32:20;4.10;;;3.40;;
6013;SDS011;3035;49.928;8.410;2024-01-07T03:34:47;2.87;;;2.47;;
6013;SDS011;3035;49.928;8.410;2024-01-07T03:37:14;5.20;;;2.83;;
6013;SDS011;3035;49.928;8.410;2024-01-07T03:39:42;3.13;;;2.83;;
6013;SDS011;3035;49.928;8.410;2024-01-07T03:42:09;2.97;;;2.63;;
6013;SDS011;3035;49.928;8.410;2024-01-07T03:44:37;3.73;;;3.33;;
6013;SDS011;3035;49.928;8.410;2024-01-07T03:47:05;5.33;;;2.90;;
6013;SDS011;3035;49.928;8.410;2024-01-07T03:49:32;4.37;;;3.13;;
6013;SDS011;3035;49.928;8.410;2024-01-07T03:51:59;4.57;;;3.20;;
6013;SDS011;3035;49.928;8.410;2024-01-07T03:54:27;17.30;;;3.70;;
6013;SDS011;3035;49.928;8.410;2024-01-07T03:56:54;4.73;;;3.67;;
6013;SDS011;3035;49.928;8.410;2024-01-07T03:59:22;4.47;;;3.40;;
6013;SDS011;3035;49.928;8.410;2024-01-07T04:01:49;5.40;;;3.67;;
6013;SDS011;3035;49.928;8.410;2024-01-07T04:04:16;4.87;;;3.50;;
6013;SDS011;3035;49.928;8.410;2024-01-07T04:06:44;3.83;;;3.43;;
6013;SDS011;3035;49.928;8.410;2024-01-07T04:09:11;4.20;;;3.47;;
6013;SDS011;3035;49.928;8.410;2024-01-07T04:11:40;3.67;;;3.27;;
6013;SDS011;3035;49.928;8.410;2024-01-07T04:14:07;4.60;;;3.33;;
6013;SDS011;3035;49.928;8.410;2024-01-07T04:16:35;4.20;;;3.03;;
6013;SDS011;3035;49.928;8.410;2024-01-07T04:19:03;4.33;;;3.20;;
6013;SDS011;3035;49.928;8.410;2024-01-07T04:21:31;4.97;;;2.70;;
6013;SDS011;3035;49.928;8.410;2024-01-07T04:23:59;3.20;;;2.87;;
6013;SDS011;3035;49.928;8.410;2024-01-07T04:26:27;3.17;;;2.80;;
6013;SDS011;3035;49.928;8.410;2024-01-07T04:28:54;4.20;;;2.50;;
6013;SDS011;3035;49.928;8.410;2024-01-07T04:31:22;3.87;;;3.20;;
6013;SDS011;3035;49.928;8.410;2024-01-07T04:33:49;4.00;;;3.20;;
6013;SDS011;3035;49.928;8.410;2024-01-07T04:36:17;4.13;;;2.83;;
6013;SDS011;3035;49.928;8.410;2024-01-07T04:38:44;5.60;;;3.50;;
6013;SDS011;3035;49.928;8.410;2024-01-07T04:41:11;4.33;;;3.07;;
6013;SDS011;3035;49.928;8.410;2024-01-07T04:43:39;3.03;;;2.73;;
6013;SDS011;3035;49.928;8.410;2024-01-07T04:46:06;3.50;;;2.93;;
6013;SDS011;3035;49.928;8.410;2024-01-07T04:48:34;3.30;;;3.00;;
6013;SDS011;3035;49.928;8.410;2024-01-07T04:51:01;3.40;;;2.70;;
6013;SDS011;3035;49.928;8.410;2024-01-07T04:53:29;3.20;;;2.87;;
6013;SDS011;3035;49.928;8.410;2024-01-07T04:55:56;3.70;;;3.00;;
6013;SDS011;3035;49.928;8.410;2024-01-07T04:58:24;2.73;;;2.50;;
6013;SDS011;3035;49.928;8.410;2024-01-07T05:00:51;2.63;;;2.37;;
6013;SDS011;3035;49.928;8.410;2024-01-07T05:03:18;3.50;;;2.80;;
6013;SDS011;3035;49.928;8.410;2024-01-07T05:05:46;3.47;;;2.67;;
6013;SDS011;3035;49.928;8.410;2024-01-07T05:08:13;3.60;;;2.90;;
6013;SDS011;3035;49.928;8.410;2024-01-07T05:10:41;3.13;;;2.83;;
6013;SDS011;3035;49.928;8.410;2024-01-07T05:13:08;6.60;;;2.97;;
6013;SDS011;3035;49.928;8.410;2024-01-07T05:15:36;3.27;;;2.60;;
6013;SDS011;3035;49.928;8.410;2024-01-07T05:18:06;3.53;;;2.50;;
6013;SDS011;3035;49.928;8.410;2024-01-07T05:20:31;4.27;;;3.20;;
6013;SDS011;3035;49.928;8.410;2024-01-07T05:22:58;3.50;;;2.80;;
6013;SDS011;3035;49.928;8.410;2024-01-07T05:25:25;2.97;;;2.67;;
6013;SDS011;3035;49.928;8.410;2024-01-07T05:27:53;3.73;;;3.00;;
6013;SDS011;3035;49.928;8.410;2024-01-07T05:30:20;4.50;;;2.90;;
6013;SDS011;3035;49.928;8.410;2024-01-07T05:32:48;3.10;;;2.50;;
6013;SDS011;3035;49.928;8.410;2024-01-07T05:35:15;2.57;;;2.37;;
6013;SDS011;3035;49.928;8.410;2024-01-07T05:37:43;4.30;;;3.07;;
6013;SDS011;3035;49.928;8.410;2024-01-07T05:40:10;4.63;;;3.67;;
6013;SDS011;3035;49.928;8.410;2024-01-07T05:42:38;4.10;;;3.70;;
6013;SDS011;3035;49.928;8.410;2024-01-07T05:45:06;4.97;;;4.10;;
6013;SDS011;3035;49.928;8.410;2024-01-07T05:47:33;5.00;;;3.70;;
6013;SDS011;3035;49.928;8.410;2024-01-07T05:50:02;9.10;;;5.17;;
6013;SDS011;3035;49.928;8.410;2024-01-07T05:52:31;8.20;;;4.73;;
6013;SDS011;3035;49.928;8.410;2024-01-07T05:54:59;7.90;;;4.97;;
6013;SDS011;3035;49.928;8.410;2024-01-07T05:57:28;9.33;;;4.93;;
6013;SDS011;3035;49.928;8.410;2024-01-07T05:59:56;9.30;;;5.20;;
6013;SDS011;3035;49.928;8.410;2024-01-07T06:02:24;9.47;;;5.40;;
6013;SDS011;3035;49.928;8.410;2024-01-07T06:04:52;6.60;;;5.23;;
6013;SDS011;3035;49.928;8.410;2024-01-07T06:07:21;13.13;;;6.00;;
6013;SDS011;3035;49.928;8.410;2024-01-07T06:09:49;9.40;;;5.97;;
6013;SDS011;3035;49.928;8.410;2024-01-07T06:12:16;8.17;;;5.23;;
6013;SDS011;3035;49.928;8.410;2024-01-07T06:14:44;10.83;;;6.13;;
6013;SDS011;3035;49.928;8.410;2024-01-07T06:17:11;17.13;;;6.57;;
6013;SDS011;3035;49.928;8.410;2024-01-07T06:19:38;9.53;;;6.73;;
6013;SDS011;3035;49.928;8.410;2024-01-07T06:22:06;11.90;;;6.63;;
6013;SDS011;3035;49.928;8.410;2024-01-07T06:24:33;11.40;;;8.07;;
6013;SDS011;3035;49.928;8.410;2024-01-07T06:27:01;12.43;;;6.67;;
6013;SDS011;3035;49.928;8.410;2024-01-07T06:29:28;15.87;;;7.60;;
6013;SDS011;3035;49.928;8.410;2024-01-07T06:31:56;13.03;;;8.20;;
6013;SDS011;3035;49.928;8.410;2024-01-07T06:34:23;14.00;;;7.73;;
6013;SDS011;3035;49.928;8.410;2024-01-07T06:36:51;14.10;;;8.53;;
6013;SDS011;3035;49.928;8.410;2024-01-07T06:39:18;12.63;;;7.70;;
6013;SDS011;3035;49.928;8.410;2024-01-07T06:41:45;14.73;;;8.47;;
6013;SDS011;3035;49.928;8.410;2024-01-07T06:44:13;12.57;;;7.80;;
6013;SDS011;3035;49.928;8.410;2024-01-07T06:46:41;10.10;;;6.53;;
6013;SDS011;3035;49.928;8.410;2024-01-07T06:49:08;8.90;;;5.87;;
6013;SDS011;3035;49.928;8.410;2024-01-07T06:51:37;8.67;;;5.70;;
6013;SDS011;3035;49.928;8.410;2024-01-07T06:54:03;6.97;;;4.70;;
6013;SDS011;3035;49.928;8.410;2024-01-07T06:56:30;5.40;;;4.13;;
6013;SDS011;3035;49.928;8.410;2024-01-07T06:58:58;6.17;;;4.40;;
6013;SDS011;3035;49.928;8.410;2024-01-07T07:01:25;6.97;;;4.60;;
6013;SDS011;3035;49.928;8.410;2024-01-07T07:03:53;6.63;;;4.20;;
6013;SDS011;3035;49.928;8.410;2024-01-07T07:06:20;5.80;;;3.80;;
6013;SDS011;3035;49.928;8.410;2024-01-07T07:08:47;4.30;;;3.37;;
6013;SDS011;3035;49.928;8.410;2024-01-07T07:11:15;7.23;;;4.67;;
6013;SDS011;3035;49.928;8.410;2024-01-07T07:13:42;6.40;;;4.07;;
6013;SDS011;3035;49.928;8.410;2024-01-07T07:16:10;7.10;;;4.70;;
6013;SDS011;3035;49.928;8.410;2024-01-07T07:18:37;6.13;;;4.63;;
6013;SDS011;3035;49.928;8.410;2024-01-07T07:21:05;6.50;;;4.10;;
6013;SDS011;3035;49.928;8.410;2024-01-07T07:23:32;5.43;;;4.50;;
6013;SDS011;3035;49.928;8.410;2024-01-07T07:26:00;6.10;;;4.30;;
6013;SDS011;3035;49.928;8.410;2024-01-07T07:28:27;6.57;;;4.43;;
6013;SDS011;3035;49.928;8.410;2024-01-07T07:30:54;7.97;;;5.23;;
6013;SDS011;3035;49.928;8.410;2024-01-07T07:33:22;6.13;;;4.70;;
6013;SDS011;3035;49.928;8.410;2024-01-07T07:35:49;7.53;;;5.07;;
6013;SDS011;3035;49.928;8.410;2024-01-07T07:38:17;8.17;;;5.03;;
6013;SDS011;3035;49.928;8.410;2024-01-07T07:40:44;7.70;;;5.30;;
6013;SDS011;3035;49.928;8.410;2024-01-07T07:43:12;9.70;;;5.83;;
6013;SDS011;3035;49.928;8.410;2024-01-07T07:45:39;8.57;;;5.23;;
6013;SDS011;3035;49.928;8.410;2024-01-07T07:48:06;10.30;;;5.80;;
6013;SDS011;3035;49.928;8.410;2024-01-07T07:50:34;11.90;;;5.93;;
6013;SDS011;3035;49.928;8.410;2024-01-07T07:53:01;11.43;;;6.50;;
6013;SDS011;3035;49.928;8.410;2024-01-07T07:55:29;13.90;;;6.43;;
6013;SDS011;3035;49.928;8.410;2024-01-07T07:57:56;8.00;;;5.00;;
6013;SDS011;3035;49.928;8.410;2024-01-07T08:00:24;9.67;;;5.67;;
6013;SDS011;3035;49.928;8.410;2024-01-07T08:02:51;9.53;;;6.20;;
6013;SDS011;3035;49.928;8.410;2024-01-07T08:05:18;9.10;;;5.80;;
6013;SDS011;3035;49.928;8.410;2024-01-07T08:07:46;9.70;;;5.37;;
6013;SDS011;3035;49.928;8.410;2024-01-07T08:10:13;8.93;;;5.87;;
6013;SDS011;3035;49.928;8.410;2024-01-07T08:12:41;11.73;;;6.33;;
6013;SDS011;3035;49.928;8.410;2024-01-07T08:15:08;10.50;;;5.63;;
6013;SDS011;3035;49.928;8.410;2024-01-07T08:17:36;9.40;;;5.83;;
6013;SDS011;3035;49.928;8.410;2024-01-07T08:20:03;9.30;;;5.73;;
6013;SDS011;3035;49.928;8.410;2024-01-07T08:22:31;8.80;;;5.40;;
6013;SDS011;3035;49.928;8.410;2024-01-07T08:24:59;9.37;;;6.00;;
6013;SDS011;3035;49.928;8.410;2024-01-07T08:27:26;9.00;;;4.80;;
6013;SDS011;3035;49.928;8.410;2024-01-07T08:29:53;10.83;;;6.43;;
6013;SDS011;3035;49.928;8.410;2024-01-07T08:32:21;10.43;;;6.10;;
6013;SDS011;3035;49.928;8.410;2024-01-07T08:34:48;10.37;;;5.80;;
6013;SDS011;3035;49.928;8.410;2024-01-07T08:37:16;8.90;;;5.10;;
6013;SDS011;3035;49.928;8.410;2024-01-07T08:39:43;9.47;;;5.83;;
6013;SDS011;3035;49.928;8.410;2024-01-07T08:42:11;7.63;;;4.73;;
6013;SDS011;3035;49.928;8.410;2024-01-07T08:44:38;12.27;;;5.77;;
6013;SDS011;3035;49.928;8.410;2024-01-07T08:47:05;10.13;;;6.00;;
6013;SDS011;3035;49.928;8.410;2024-01-07T08:49:33;9.97;;;6.27;;
6013;SDS011;3035;49.928;8.410;2024-01-07T08:52:00;12.53;;;6.13;;
6013;SDS011;3035;49.928;8.410;2024-01-07T08:54:28;10.23;;;6.53;;
6013;SDS011;3035;49.928;8.410;2024-01-07T08:56:55;10.97;;;7.10;;
6013;SDS011;3035;49.928;8.410;2024-01-07T08:59:24;11.27;;;6.27;;
6013;SDS011;3035;49.928;8.410;2024-01-07T09:01:51;9.50;;;5.47;;
6013;SDS011;3035;49.928;8.410;2024-01-07T09:04:19;14.37;;;6.50;;
6013;SDS011;3035;49.928;8.410;2024-01-07T09:06:46;11.13;;;5.80;;
6013;SDS011;3035;49.928;8.410;2024-01-07T09:09:14;10.67;;;6.23;;
6013;SDS011;3035;49.928;8.410;2024-01-07T09:11:41;10.77;;;6.50;;
6013;SDS011;3035;49.928;8.410;2024-01-07T09:14:08;9.00;;;5.80;;
6013;SDS011;3035;49.928;8.410;2024-01-07T09:16:36;12.80;;;7.00;;
6013;SDS011;3035;49.928;8.410;2024-01-07T09:19:03;10.07;;;5.90;;
6013;SDS011;3035;49.928;8.410;2024-01-07T09:21:31;9.57;;;6.67;;
6013;SDS011;3035;49.928;8.410;2024-01-07T09:23:58;13.50;;;6.80;;
6013;SDS011;3035;49.928;8.410;2024-01-07T09:26:26;19.50;;;8.90;;
6013;SDS011;3035;49.928;8.410;2024-01-07T09:28:53;11.57;;;6.10;;
6013;SDS011;3035;49.928;8.410;2024-01-07T09:31:20;14.43;;;8.00;;
6013;SDS011;3035;49.928;8.410;2024-01-07T09:33:48;9.27;;;6.20;;
6013;SDS011;3035;49.928;8.410;2024-01-07T09:36:15;12.77;;;7.37;;
6013;SDS011;3035;49.928;8.410;2024-01-07T09:38:43;12.10;;;6.20;;
6013;SDS011;3035;49.928;8.410;2024-01-07T09:41:10;12.00;;;6.50;;
6013;SDS011;3035;49.928;8.410;2024-01-07T09:43:38;11.47;;;5.97;;
6013;SDS011;3035;49.928;8.410;2024-01-07T09:46:05;10.50;;;6.50;;
6013;SDS011;3035;49.928;8.410;2024-01-07T09:48:33;12.33;;;6.50;;
6013;SDS011;3035;49.928;8.410;2024-01-07T09:51:00;10.33;;;5.73;;
6013;SDS011;3035;49.928;8.410;2024-01-07T09:53:30;11.13;;;6.27;;
6013;SDS011;3035;49.928;8.410;2024-01-07T09:56:11;10.63;;;5.97;;
6013;SDS011;3035;49.928;8.410;2024-01-07T09:58:39;12.50;;;6.60;;
6013;SDS011;3035;49.928;8.410;2024-01-07T10:01:06;12.43;;;6.20;;
6013;SDS011;3035;49.928;8.410;2024-01-07T10:03:33;12.63;;;6.43;;
6013;SDS011;3035;49.928;8.410;2024-01-07T10:06:00;8.40;;;5.33;;
6013;SDS011;3035;49.928;8.410;2024-01-07T10:08:28;12.33;;;6.40;;
6013;SDS011;3035;49.928;8.410;2024-01-07T10:10:55;9.10;;;5.90;;
6013;SDS011;3035;49.928;8.410;2024-01-07T10:13:23;10.23;;;5.80;;
6013;SDS011;3035;49.928;8.410;2024-01-07T10:15:51;8.80;;;5.17;;
6013;SDS011;3035;49.928;8.410;2024-01-07T10:18:18;8.10;;;5.67;;
6013;SDS011;3035;49.928;8.410;2024-01-07T10:20:46;8.80;;;5.87;;
6013;SDS011;3035;49.928;8.410;2024-01-07T10:23:22;9.23;;;5.67;;
6013;SDS011;3035;49.928;8.410;2024-01-07T10:25:49;7.73;;;4.80;;
6013;SDS011;3035;49.928;8.410;2024-01-07T10:28:17;9.50;;;5.53;;
6013;SDS011;3035;49.928;8.410;2024-01-07T10:30:49;9.90;;;5.47;;
6013;SDS011;3035;49.928;8.410;2024-01-07T10:33:17;7.40;;;4.40;;
6013;SDS011;3035;49.928;8.410;2024-01-07T10:41:18;6.00;;;4.80;;
6013;SDS011;3035;49.928;8.410;2024-01-07T10:43:46;7.90;;;5.43;;
6013;SDS011;3035;49.928;8.410;2024-01-07T10:46:15;7.40;;;4.40;;
6013;SDS011;3035;49.928;8.410;2024-01-07T10:48:48;7.43;;;4.83;;
6013;SDS011;3035;49.928;8.410;2024-01-07T10:51:10;4.87;;;3.90;;
6013;SDS011;3035;49.928;8.410;2024-01-07T10:53:38;5.50;;;4.00;;
6013;SDS011;3035;49.928;8.410;2024-01-07T10:56:08;7.17;;;4.33;;
6013;SDS011;3035;49.928;8.410;2024-01-07T10:58:36;7.30;;;4.50;;
6013;SDS011;3035;49.928;8.410;2024-01-07T11:01:03;6.27;;;4.30;;
6013;SDS011;3035;49.928;8.410;2024-01-07T11:03:33;4.63;;;4.20;;
6013;SDS011;3035;49.928;8.410;2024-01-07T11:06:06;5.33;;;4.10;;
6013;SDS011;3035;49.928;8.410;2024-01-07T11:08:34;6.07;;;4.83;;
6013;SDS011;3035;49.928;8.410;2024-01-07T11:11:03;5.30;;;4.23;;
6013;SDS011;3035;49.928;8.410;2024-01-07T11:13:33;6.77;;;5.03;;
6013;SDS011;3035;49.928;8.410;2024-01-07T11:16:02;6.37;;;4.70;;
6013;SDS011;3035;49.928;8.410;2024-01-07T11:18:30;6.30;;;4.83;;
6013;SDS011;3035;49.928;8.410;2024-01-07T11:20:58;6.57;;;4.77;;
6013;SDS011;3035;49.928;8.410;2024-01-07T11:23:26;7.07;;;5.03;;
6013;SDS011;3035;49.928;8.410;2024-01-07T11:25:58;8.73;;;5.80;;
6013;SDS011;3035;49.928;8.410;2024-01-07T11:31:05;7.33;;;5.27;;
6013;SDS011;3035;49.928;8.410;2024-01-07T11:33:36;6.87;;;4.90;;
6013;SDS011;3035;49.928;8.410;2024-01-07T11:36:03;6.60;;;5.23;;
6013;SDS011;3035;49.928;8.410;2024-01-07T11:38:30;6.30;;;4.50;;
6013;SDS011;3035;49.928;8.410;2024-01-07T11:40:57;7.47;;;4.60;;
6013;SDS011;3035;49.928;8.410;2024-01-07T11:43:25;7.30;;;4.80;;
6013;SDS011;3035;49.928;8.410;2024-01-07T11:45:52;7.07;;;5.23;;
6013;SDS011;3035;49.928;8.410;2024-01-07T11:48:19;7.27;;;4.50;;
6013;SDS011;3035;49.928;8.410;2024-01-07T11:50:47;6.83;;;4.57;;
6013;SDS011;3035;49.928;8.410;2024-01-07T11:53:14;8.10;;;5.43;;
6013;SDS011;3035;49.928;8.410;2024-01-07T11:55:42;7.70;;;3.90;;
6013;SDS011;3035;49.928;8.410;2024-01-07T11:58:09;7.43;;;4.80;;
6013;SDS011;3035;49.928;8.410;2024-01-07T12:00:37;6.63;;;5.20;;
6013;SDS011;3035;49.928;8.410;2024-01-07T12:03:04;8.27;;;5.30;;
6013;SDS011;3035;49.928;8.410;2024-01-07T12:05:32;6.13;;;4.37;;
6013;SDS011;3035;49.928;8.410;2024-01-07T12:08:00;8.90;;;5.13;;
6013;SDS011;3035;49.928;8.410;2024-01-07T12:10:26;8.70;;;4.43;;
6013;SDS011;3035;49.928;8.410;2024-01-07T12:12:54;6.80;;;4.10;;
6013;SDS011;3035;49.928;8.410;2024-01-07T12:15:21;6.90;;;4.70;;
6013;SDS011;3035;49.928;8.410;2024-01-07T12:20:23;5.47;;;3.90;;
6013;SDS011;3035;49.928;8.410;2024-01-07T12:22:50;8.30;;;5.50;;
6013;SDS011;3035;49.928;8.410;2024-01-07T12:25:20;6.57;;;5.00;;
6013;SDS011;3035;49.928;8.410;2024-01-07T12:27:48;10.40;;;6.13;;
6013;SDS011;3035;49.928;8.410;2024-01-07T12:30:15;6.70;;;4.60;;
6013;SDS011;3035;49.928;8.410;2024-01-07T12:32:43;9.07;;;5.00;;
6013;SDS011;3035;49.928;8.410;2024-01-07T12:35:10;8.13;;;5.23;;
6013;SDS011;3035;49.928;8.410;2024-01-07T12:37:38;6.80;;;4.23;;
6013;SDS011;3035;49.928;8.410;2024-01-07T12:40:05;10.03;;;5.37;;
6013;SDS011;3035;49.928;8.410;2024-01-07T12:42:33;6.10;;;5.03;;
6013;SDS011;3035;49.928;8.410;2024-01-07T12:45:00;8.67;;;5.93;;
6013;SDS011;3035;49.928;8.410;2024-01-07T12:47:28;8.37;;;5.43;;
6013;SDS011;3035;49.928;8.410;2024-01-07T12:49:55;7.50;;;5.80;;
6013;SDS011;3035;49.928;8.410;2024-01-07T12:52:23;7.87;;;5.27;;
6013;SDS011;3035;49.928;8.410;2024-01-07T12:54:50;6.07;;;4.63;;
6013;SDS011;3035;49.928;8.410;2024-01-07T12:57:18;7.00;;;4.37;;
6013;SDS011;3035;49.928;8.410;2024-01-07T12:59:45;10.10;;;5.17;;
6013;SDS011;3035;49.928;8.410;2024-01-07T13:02:12;10.00;;;5.00;;
6013;SDS011;3035;49.928;8.410;2024-01-07T13:04:40;7.07;;;4.30;;
6013;SDS011;3035;49.928;8.410;2024-01-07T13:07:07;6.80;;;5.07;;
6013;SDS011;3035;49.928;8.410;2024-01-07T13:09:35;6.70;;;4.90;;
6013;SDS011;3035;49.928;8.410;2024-01-07T13:12:02;8.47;;;5.30;;
6013;SDS011;3035;49.928;8.410;2024-01-07T13:14:30;8.93;;;5.27;;
6013;SDS011;3035;49.928;8.410;2024-01-07T13:16:57;8.07;;;4.13;;
6013;SDS011;3035;49.928;8.410;2024-01-07T13:19:25;11.00;;;5.03;;
6013;SDS011;3035;49.928;8.410;2024-01-07T13:21:52;8.20;;;5.27;;
6013;SDS011;3035;49.928;8.410;2024-01-07T13:24:19;6.50;;;4.40;;
6013;SDS011;3035;49.928;8.410;2024-01-07T13:26:47;12.20;;;5.00;;
6013;SDS011;3035;49.928;8.410;2024-01-07T13:29:14;7.70;;;5.00;;
6013;SDS011;3035;49.928;8.410;2024-01-07T13:31:42;11.10;;;5.57;;
6013;SDS011;3035;49.928;8.410;2024-01-07T13:34:09;6.70;;;4.43;;
6013;SDS011;3035;49.928;8.410;2024-01-07T13:36:37;7.10;;;4.20;;
6013;SDS011;3035;49.928;8.410;2024-01-07T13:39:04;7.70;;;4.30;;
6013;SDS011;3035;49.928;8.410;2024-01-07T13:41:31;7.20;;;4.60;;
6013;SDS011;3035;49.928;8.410;2024-01-07T13:43:59;7.13;;;4.30;;
6013;SDS011;3035;49.928;8.410;2024-01-07T13:46:26;12.70;;;4.60;;
6013;SDS011;3035;49.928;8.410;2024-01-07T13:48:54;6.80;;;4.47;;
6013;SDS011;3035;49.928;8.410;2024-01-07T13:51:21;6.23;;;4.40;;
6013;SDS011;3035;49.928;8.410;2024-01-07T13:53:49;7.00;;;4.53;;
6013;SDS011;3035;49.928;8.410;2024-01-07T13:56:16;5.40;;;3.70;;
6013;SDS011;3035;49.928;8.410;2024-01-07T13:58:43;6.70;;;4.23;;
6013;SDS011;3035;49.928;8.410;2024-01-07T14:01:11;6.77;;;4.23;;
6013;SDS011;3035;49.928;8.410;2024-01-07T14:03:38;8.27;;;4.00;;
6013;SDS011;3035;49.928;8.410;2024-01-07T14:06:06;10.03;;;5.17;;
6013;SDS011;3035;49.928;8.410;2024-01-07T14:08:33;5.77;;;3.80;;
6013;SDS011;3035;49.928;8.410;2024-01-07T14:11:01;8.70;;;4.97;;
6013;SDS011;3035;49.928;8.410;2024-01-07T14:13:28;8.40;;;4.27;;
6013;SDS011;3035;49.928;8.410;2024-01-07T14:15:56;6.40;;;4.27;;
6013;SDS011;3035;49.928;8.410;2024-01-07T14:18:23;5.30;;;4.10;;
6013;SDS011;3035;49.928;8.410;2024-01-07T14:20:50;9.17;;;5.77;;
6013;SDS011;3035;49.928;8.410;2024-01-07T14:23:18;8.17;;;4.40;;
6013;SDS011;3035;49.928;8.410;2024-01-07T14:25:45;6.23;;;4.27;;
6013;SDS011;3035;49.928;8.410;2024-01-07T14:28:13;9.13;;;4.63;;
6013;SDS011;3035;49.928;8.410;2024-01-07T14:30:40;5.63;;;3.73;;
6013;SDS011;3035;49.928;8.410;2024-01-07T14:33:08;8.67;;;4.03;;
6013;SDS011;3035;49.928;8.410;2024-01-07T14:35:35;5.63;;;3.03;;
6013;SDS011;3035;49.928;8.410;2024-01-07T14:38:02;4.50;;;3.47;;
6013;SDS011;3035;49.928;8.410;2024-01-07T14:40:30;4.30;;;3.00;;
6013;SDS011;3035;49.928;8.410;2024-01-07T14:42:57;5.93;;;3.67;;
6013;SDS011;3035;49.928;8.410;2024-01-07T14:45:26;5.97;;;3.27;;
6013;SDS011;3035;49.928;8.410;2024-01-07T14:47:53;4.23;;;3.20;;
6013;SDS011;3035;49.928;8.410;2024-01-07T14:50:21;4.30;;;3.47;;
6013;SDS011;3035;49.928;8.410;2024-01-07T14:52:48;5.43;;;3.60;;
6013;SDS011;3035;49.928;8.410;2024-01-07T14:55:15;5.50;;;4.33;;
6013;SDS011;3035;49.928;8.410;2024-01-07T14:57:43;6.87;;;3.90;;
6013;SDS011;3035;49.928;8.410;2024-01-07T15:00:10;11.67;;;5.60;;
6013;SDS011;3035;49.928;8.410;2024-01-07T15:02:38;8.00;;;4.60;;
6013;SDS011;3035;49.928;8.410;2024-01-07T15:05:05;8.00;;;4.47;;
6013;SDS011;3035;49.928;8.410;2024-01-07T15:07:33;5.73;;;3.53;;
6013;SDS011;3035;49.928;8.410;2024-01-07T15:10:00;5.47;;;3.40;;
6013;SDS011;3035;49.928;8.410;2024-01-07T15:12:28;6.57;;;4.20;;
6013;SDS011;3035;49.928;8.410;2024-01-07T15:14:55;7.50;;;3.70;;
6013;SDS011;3035;49.928;8.410;2024-01-07T15:17:23;5.43;;;3.60;;
6013;SDS011;3035;49.928;8.410;2024-01-07T15:19:50;5.90;;;3.20;;
6013;SDS011;3035;49.928;8.410;2024-01-07T15:22:18;5.93;;;3.27;;
6013;SDS011;3035;49.928;8.410;2024-01-07T15:24:45;5.40;;;3.40;;